createdAt,value
2022-09-26T00:00:43.113Z,24.98
2022-09-26T00:03:11.098Z,23.50
2022-09-26T00:05:38.938Z,23.50
2022-09-26T00:08:07.361Z,22.10
2022-09-26T00:10:35.025Z,23.80
2022-09-26T00:13:01.794Z,23.67
2022-09-26T00:15:28.474Z,23.10
2022-09-26T00:17:55.458Z,21.62
2022-09-26T00:20:22.107Z,24.65
2022-09-26T00:22:48.769Z,23.20
2022-09-26T00:25:15.864Z,24.55
2022-09-26T00:27:42.446Z,24.15
2022-09-26T00:30:09.655Z,23.48
2022-09-26T00:32:36.680Z,22.77
2022-09-26T00:35:03.531Z,25.85
2022-09-26T00:37:30.308Z,24.75
2022-09-26T00:39:57.243Z,22.27
2022-09-26T00:42:24.813Z,21.90
2022-09-26T00:44:56.799Z,20.25
2022-09-26T00:47:41.303Z,24.12
2022-09-26T00:50:24.906Z,25.65
2022-09-26T00:52:58.796Z,21.65
2022-09-26T00:55:30.210Z,22.00
2022-09-26T00:58:04.553Z,23.33
2022-09-26T01:00:31.807Z,21.37
2022-09-26T01:02:58.992Z,21.10
2022-09-26T01:05:26.093Z,22.83
2022-09-26T01:07:55.837Z,20.50
2022-09-26T01:10:24.600Z,22.67
2022-09-26T01:12:52.434Z,18.37
2022-09-26T01:15:19.200Z,20.17
2022-09-26T01:17:48.580Z,17.90
2022-09-26T01:20:30.862Z,17.35
2022-09-26T01:23:09.951Z,20.02
2022-09-26T01:25:48.710Z,18.92
2022-09-26T01:28:34.267Z,18.08
2022-09-26T01:31:12.823Z,18.60
2022-09-26T01:33:56.521Z,17.98
2022-09-26T01:36:30.993Z,19.65
2022-09-26T01:39:08.508Z,21.45
2022-09-26T01:41:48.242Z,19.45
2022-09-26T01:44:30.982Z,18.95
2022-09-26T01:47:15.057Z,16.45
2022-09-26T01:50:01.063Z,15.10
2022-09-26T01:52:37.222Z,12.20
2022-09-26T01:55:32.364Z,13.20
2022-09-26T01:58:10.015Z,14.57
2022-09-26T02:00:39.861Z,13.55
2022-09-26T02:03:13.687Z,14.27
2022-09-26T02:06:02.514Z,13.18
2022-09-26T02:08:44.310Z,13.88
2022-09-26T02:11:17.326Z,13.90
2022-09-26T02:13:55.759Z,15.52
2022-09-26T02:16:36.382Z,13.95
2022-09-26T02:19:10.311Z,14.68
2022-09-26T02:21:37.456Z,12.07
2022-09-26T02:24:04.494Z,13.95
2022-09-26T02:26:33.709Z,14.30
2022-09-26T02:29:01.702Z,13.98
2022-09-26T02:31:34.282Z,13.40
2022-09-26T02:34:03.850Z,13.18
2022-09-26T02:36:33.671Z,13.93
2022-09-26T02:39:01.726Z,13.65
2022-09-26T02:42:28.363Z,13.90
2022-09-26T02:45:50.403Z,14.15
2022-09-26T02:48:38.847Z,13.75
2022-09-26T02:51:30.555Z,13.82
2022-09-26T02:54:22.772Z,12.88
2022-09-26T02:57:09.500Z,14.70
2022-09-26T02:59:59.200Z,12.95
2022-09-26T03:02:34.000Z,14.98
2022-09-26T03:05:20.561Z,14.73
2022-09-26T03:07:54.302Z,14.38
2022-09-26T03:10:21.660Z,15.23
2022-09-26T03:12:50.978Z,15.15
2022-09-26T03:15:19.664Z,15.15
2022-09-26T03:17:54.078Z,16.45
2022-09-26T03:20:23.053Z,16.58
2022-09-26T03:22:51.083Z,15.48
2022-09-26T03:25:24.133Z,16.48
2022-09-26T03:27:53.947Z,14.50
2022-09-26T03:30:22.113Z,14.68
2022-09-26T03:32:50.644Z,13.25
2022-09-26T03:35:17.740Z,15.85
2022-09-26T03:37:45.604Z,12.77
2022-09-26T03:40:12.766Z,15.65
2022-09-26T03:42:41.902Z,16.00
2022-09-26T03:45:10.941Z,17.58
2022-09-26T03:47:42.027Z,15.90
2022-09-26T03:50:09.544Z,14.45
2022-09-26T03:52:36.632Z,15.95
2022-09-26T03:55:04.592Z,15.68
2022-09-26T03:57:31.578Z,16.08
2022-09-26T03:59:59.262Z,18.27
2022-09-26T04:02:27.225Z,18.67
2022-09-26T04:04:55.113Z,17.30
2022-09-26T04:07:22.118Z,17.05
2022-09-26T04:09:48.822Z,18.48
2022-09-26T04:12:16.486Z,16.50
2022-09-26T04:14:43.513Z,17.08
2022-09-26T04:17:10.527Z,17.00
2022-09-26T04:19:37.988Z,16.83
2022-09-26T04:22:05.902Z,18.35
2022-09-26T04:24:32.971Z,16.30
2022-09-26T04:27:00.818Z,15.10
2022-09-26T04:29:29.168Z,21.15
2022-09-26T04:31:56.438Z,18.48
2022-09-26T04:34:27.292Z,17.77
2022-09-26T04:36:54.723Z,22.98
2022-09-26T04:39:21.521Z,20.95
2022-09-26T04:41:48.584Z,18.17
2022-09-26T04:44:15.250Z,18.45
2022-09-26T04:46:42.197Z,19.00
2022-09-26T04:49:09.630Z,16.83
2022-09-26T04:51:37.168Z,18.27
2022-09-26T04:54:04.295Z,19.12
2022-09-26T04:56:32.266Z,20.55
2022-09-26T04:58:59.454Z,20.00
2022-09-26T05:01:27.199Z,21.25
2022-09-26T05:03:57.655Z,16.45
2022-09-26T05:06:25.167Z,21.50
2022-09-26T05:08:53.506Z,19.87
2022-09-26T05:11:21.572Z,17.95
2022-09-26T05:13:53.560Z,21.42
2022-09-26T05:16:22.551Z,24.48
2022-09-26T05:18:53.133Z,20.00
2022-09-26T05:21:19.917Z,25.77
2022-09-26T05:24:05.530Z,22.58
2022-09-26T05:26:40.373Z,23.00
2022-09-26T05:29:09.029Z,22.87
2022-09-26T05:31:39.453Z,25.17
2022-09-26T05:34:08.663Z,23.33
2022-09-26T05:36:36.338Z,25.42
2022-09-26T05:39:26.750Z,28.42
2022-09-26T05:41:54.623Z,24.17
2022-09-26T05:44:21.273Z,27.15
2022-09-26T05:46:48.552Z,23.52
2022-09-26T05:49:15.744Z,21.27
2022-09-26T05:51:43.186Z,24.20
2022-09-26T05:54:10.523Z,23.87
2022-09-26T05:56:37.888Z,24.75
2022-09-26T05:59:06.898Z,27.70
2022-09-26T06:01:46.890Z,25.77
2022-09-26T06:04:15.417Z,28.98
2022-09-26T06:06:46.190Z,25.35
2022-09-26T06:09:15.153Z,25.52
2022-09-26T06:11:43.718Z,28.23
2022-09-26T06:14:10.913Z,27.87
2022-09-26T06:16:38.012Z,26.10
2022-09-26T06:19:05.158Z,27.37
2022-09-26T06:21:31.884Z,23.33
2022-09-26T06:23:59.174Z,25.37
2022-09-26T06:26:28.946Z,26.40
2022-09-26T06:28:58.230Z,25.40
2022-09-26T06:31:26.876Z,26.05
2022-09-26T06:33:58.526Z,25.67
2022-09-26T06:36:26.414Z,27.05
2022-09-26T06:38:54.985Z,25.80
2022-09-26T06:41:22.222Z,25.17
2022-09-26T06:43:50.017Z,23.55
2022-09-26T06:46:17.957Z,26.17
2022-09-26T06:48:46.663Z,24.63
2022-09-26T06:51:15.270Z,22.83
2022-09-26T06:53:44.613Z,24.00
2022-09-26T06:56:13.348Z,24.52
2022-09-26T06:58:40.660Z,24.45
2022-09-26T07:01:08.579Z,24.42
2022-09-26T07:03:42.924Z,24.10
2022-09-26T07:06:14.005Z,23.98
2022-09-26T07:09:01.630Z,21.65
2022-09-26T07:11:42.136Z,26.00
2022-09-26T07:14:18.257Z,24.70
2022-09-26T07:16:48.569Z,25.17
2022-09-26T07:19:17.002Z,25.23
2022-09-26T07:21:44.902Z,25.27
2022-09-26T07:24:15.016Z,27.23
2022-09-26T07:26:42.475Z,23.25
2022-09-26T07:29:09.966Z,23.83
2022-09-26T07:31:37.195Z,21.70
2022-09-26T07:34:08.935Z,21.83
2022-09-26T07:36:36.323Z,20.95
2022-09-26T07:39:04.028Z,20.10
2022-09-26T07:41:31.164Z,20.08
2022-09-26T07:47:04.603Z,20.02
2022-09-26T07:49:50.568Z,22.62
2022-09-26T07:52:22.300Z,21.62
2022-09-26T07:54:50.546Z,20.40
2022-09-26T07:57:19.545Z,20.40
2022-09-26T07:59:50.418Z,20.25
2022-09-26T08:02:23.595Z,19.40
2022-09-26T08:04:58.804Z,19.40
2022-09-26T08:07:27.506Z,18.87
2022-09-26T08:09:56.907Z,20.42
2022-09-26T08:12:27.030Z,20.83
2022-09-26T08:14:56.300Z,22.05
2022-09-26T08:17:24.131Z,22.58
2022-09-26T08:19:51.732Z,23.08
2022-09-26T08:22:19.134Z,23.17
2022-09-26T08:24:50.901Z,24.77
2022-09-26T08:27:18.370Z,22.08
2022-09-26T08:29:49.528Z,20.92
2022-09-26T08:32:17.542Z,19.20
2022-09-26T08:34:44.969Z,21.83
2022-09-26T08:37:29.498Z,22.80
2022-09-26T08:40:13.096Z,19.67
2022-09-26T08:42:53.687Z,21.52
2022-09-26T08:45:56.424Z,21.52
2022-09-26T08:51:29.383Z,17.17
2022-09-26T08:54:24.835Z,18.60
2022-09-26T08:57:15.168Z,25.00
2022-09-26T08:59:46.058Z,19.75
2022-09-26T09:02:44.315Z,20.17
2022-09-26T09:05:23.660Z,21.17
2022-09-26T09:07:54.632Z,20.10
2022-09-26T09:10:51.938Z,20.02
2022-09-26T09:13:37.601Z,20.35
2022-09-26T09:16:23.720Z,23.80
2022-09-26T09:19:11.629Z,22.02
2022-09-26T09:21:41.822Z,23.05
2022-09-26T09:24:37.218Z,20.45
2022-09-26T09:30:22.090Z,17.58
2022-09-26T09:33:03.649Z,18.17
2022-09-26T09:35:41.539Z,19.03
2022-09-26T09:38:16.261Z,19.75
2022-09-26T09:40:50.927Z,17.80
2022-09-26T09:43:35.604Z,17.92
2022-09-26T09:46:06.004Z,18.15
2022-09-26T09:48:33.387Z,22.05
2022-09-26T09:51:16.850Z,20.50
2022-09-26T09:53:50.603Z,17.33
2022-09-26T09:56:46.715Z,18.75
2022-09-26T09:59:47.235Z,18.87
2022-09-26T10:02:32.307Z,17.30
2022-09-26T10:05:18.553Z,18.40
2022-09-26T10:07:47.621Z,17.75
2022-09-26T10:10:21.844Z,17.30
2022-09-26T10:12:52.783Z,17.52
2022-09-26T10:15:26.270Z,20.73
2022-09-26T10:18:23.962Z,21.42
2022-09-26T10:20:53.997Z,24.27
2022-09-26T10:23:31.135Z,31.17
2022-09-26T10:26:04.627Z,29.15
2022-09-26T10:28:36.880Z,20.52
2022-09-26T10:31:10.720Z,17.95
2022-09-26T10:33:45.320Z,17.87
2022-09-26T10:36:27.967Z,17.08
2022-09-26T10:39:21.307Z,17.83
2022-09-26T10:41:58.003Z,15.80
2022-09-26T10:44:33.673Z,18.08
2022-09-26T10:47:13.136Z,17.20
2022-09-26T10:49:51.271Z,16.92
2022-09-26T10:52:36.521Z,16.90
2022-09-26T10:55:15.418Z,16.15
2022-09-26T10:57:48.029Z,17.30
2022-09-26T11:00:37.172Z,15.98
2022-09-26T11:03:07.531Z,20.05
2022-09-26T11:05:57.326Z,16.93
2022-09-26T11:08:30.371Z,16.48
2022-09-26T11:11:00.548Z,16.25
2022-09-26T11:13:50.140Z,14.50
2022-09-26T11:16:20.275Z,17.77
2022-09-26T11:19:01.684Z,16.67
2022-09-26T11:21:47.980Z,15.57
2022-09-26T11:24:37.432Z,15.65
2022-09-26T11:27:31.185Z,16.42
2022-09-26T11:30:09.380Z,12.85
2022-09-26T11:32:42.869Z,14.65
2022-09-26T11:35:16.519Z,15.68
2022-09-26T11:37:55.197Z,13.70
2022-09-26T11:40:50.522Z,14.15
2022-09-26T11:43:36.182Z,14.93
2022-09-26T11:46:15.242Z,14.07
2022-09-26T11:48:49.129Z,14.60
2022-09-26T11:51:40.140Z,14.77
2022-09-26T11:54:45.629Z,13.50
2022-09-26T11:57:28.079Z,13.43
2022-09-26T12:02:58.367Z,11.80
2022-09-26T12:05:44.329Z,13.18
2022-09-26T12:08:42.039Z,11.30
2022-09-26T12:11:28.078Z,13.25
2022-09-26T12:14:15.917Z,11.98
2022-09-26T12:16:58.777Z,13.38
2022-09-26T12:19:32.065Z,12.00
2022-09-26T12:22:28.480Z,13.70
2022-09-26T12:25:00.637Z,15.02
2022-09-26T12:27:36.157Z,12.57
2022-09-26T12:30:10.784Z,13.77
2022-09-26T12:33:00.947Z,11.68
2022-09-26T12:35:55.816Z,12.43
2022-09-26T12:38:32.811Z,13.02
2022-09-26T12:41:23.054Z,15.18
2022-09-26T12:44:01.875Z,13.10
2022-09-26T12:46:37.596Z,13.73
2022-09-26T12:49:32.083Z,14.55
2022-09-26T12:52:27.277Z,15.05
2022-09-26T12:55:00.371Z,14.27
2022-09-26T12:57:32.948Z,13.55
2022-09-26T13:00:31.351Z,15.32
2022-09-26T13:03:28.748Z,13.62
2022-09-26T13:06:33.517Z,13.48
2022-09-26T13:09:45.759Z,13.48
2022-09-26T13:12:22.918Z,13.45
2022-09-26T13:15:00.905Z,14.25
2022-09-26T13:17:34.644Z,14.00
2022-09-26T13:20:06.071Z,14.45
2022-09-26T13:25:21.824Z,13.52
2022-09-26T13:28:21.260Z,13.15
2022-09-26T13:30:54.825Z,15.45
2022-09-26T13:33:31.310Z,13.65
2022-09-26T13:36:00.896Z,14.63
2022-09-26T13:38:34.852Z,13.68
2022-09-26T13:41:26.933Z,13.23
2022-09-26T13:44:09.203Z,13.85
2022-09-26T13:46:48.143Z,17.50
2022-09-26T13:49:36.780Z,13.98
2022-09-26T13:52:19.218Z,12.98
2022-09-26T13:55:02.141Z,11.90
2022-09-26T13:57:46.839Z,14.32
2022-09-26T14:00:24.338Z,14.87
2022-09-26T14:03:10.378Z,17.67
2022-09-26T14:05:43.662Z,12.90
2022-09-26T14:08:44.990Z,14.27
2022-09-26T14:11:27.781Z,13.77
2022-09-26T14:14:18.351Z,12.25
2022-09-26T14:16:49.801Z,14.05
2022-09-26T14:19:46.568Z,11.70
2022-09-26T14:22:20.556Z,11.40
2022-09-26T14:24:49.216Z,12.82
2022-09-26T14:27:15.959Z,12.70
2022-09-26T14:29:44.532Z,11.73
2022-09-26T14:32:18.579Z,14.40
2022-09-26T14:34:57.306Z,14.75
2022-09-26T14:37:24.257Z,12.50
2022-09-26T14:40:01.076Z,13.20
2022-09-26T14:42:34.275Z,10.63
2022-09-26T14:45:05.095Z,9.70
2022-09-26T14:47:48.654Z,9.73
2022-09-26T14:50:20.790Z,10.40
2022-09-26T14:52:57.988Z,10.20
2022-09-26T14:55:26.975Z,12.82
2022-09-26T14:58:37.284Z,12.43
2022-09-26T15:01:18.025Z,14.65
2022-09-26T15:04:12.760Z,12.80
2022-09-26T15:06:46.320Z,13.00
2022-09-26T15:09:55.653Z,14.80
2022-09-26T15:12:44.322Z,12.10
2022-09-26T15:15:43.441Z,13.40
2022-09-26T15:18:28.579Z,11.30
2022-09-26T15:21:04.358Z,13.90
2022-09-26T15:23:34.125Z,12.85
2022-09-26T15:26:06.088Z,12.73
2022-09-26T15:28:34.845Z,16.30
2022-09-26T15:31:28.182Z,12.68
2022-09-26T15:34:01.981Z,15.13
2022-09-26T15:36:32.141Z,12.55
2022-09-26T15:38:59.846Z,12.73
2022-09-26T15:41:45.514Z,12.25
2022-09-26T15:44:22.631Z,13.30
2022-09-26T15:46:50.656Z,11.25
2022-09-26T15:49:22.603Z,12.37
2022-09-26T15:51:54.554Z,11.12
2022-09-26T15:54:28.059Z,12.55
2022-09-26T15:56:58.677Z,12.37
2022-09-26T15:59:41.437Z,12.37
2022-09-26T16:02:24.406Z,12.27
2022-09-26T16:04:54.822Z,11.23
2022-09-26T16:07:26.494Z,12.80
2022-09-26T16:09:56.062Z,12.43
2022-09-26T16:12:26.509Z,12.15
2022-09-26T16:14:58.405Z,13.35
2022-09-26T16:17:35.848Z,14.05
2022-09-26T16:20:25.669Z,13.45
2022-09-26T16:23:01.828Z,14.32
2022-09-26T16:25:52.794Z,14.23
2022-09-26T16:28:26.127Z,13.65
2022-09-26T16:30:53.145Z,13.20
2022-09-26T16:33:32.001Z,14.10
2022-09-26T16:36:13.315Z,14.30
2022-09-26T16:38:40.312Z,14.47
2022-09-26T16:41:56.483Z,13.80
2022-09-26T16:44:31.909Z,14.38
2022-09-26T16:47:04.678Z,15.88
2022-09-26T16:49:47.139Z,15.02
2022-09-26T16:52:36.567Z,13.73
2022-09-26T16:55:08.950Z,14.07
2022-09-26T16:57:39.947Z,14.20
2022-09-26T17:00:40.208Z,13.82
2022-09-26T17:03:22.551Z,13.45
2022-09-26T17:05:50.648Z,14.20
2022-09-26T17:08:18.531Z,14.23
2022-09-26T17:10:46.334Z,14.80
2022-09-26T17:13:22.685Z,14.77
2022-09-26T17:15:54.724Z,15.15
2022-09-26T17:20:50.831Z,15.02
2022-09-26T17:23:38.743Z,16.12
2022-09-26T17:26:06.850Z,14.85
2022-09-26T17:28:40.114Z,15.45
2022-09-26T17:31:11.999Z,14.55
2022-09-26T17:36:16.686Z,13.45
2022-09-26T17:38:43.830Z,14.65
2022-09-26T17:41:12.650Z,14.40
2022-09-26T17:43:41.115Z,14.15
2022-09-26T17:46:15.208Z,14.75
2022-09-26T17:48:43.559Z,13.80
2022-09-26T17:51:13.896Z,15.30
2022-09-26T17:53:50.127Z,15.73
2022-09-26T17:56:22.020Z,15.85
2022-09-26T17:58:49.633Z,14.65
2022-09-26T18:01:33.681Z,15.00
2022-09-26T18:04:06.223Z,13.98
2022-09-26T18:06:33.443Z,14.80
2022-09-26T18:09:07.711Z,14.52
2022-09-26T18:11:36.279Z,15.38
2022-09-26T18:14:06.137Z,17.75
2022-09-26T18:16:33.072Z,16.00
2022-09-26T18:19:06.071Z,14.70
2022-09-26T18:21:34.259Z,15.95
2022-09-26T18:24:06.466Z,16.00
2022-09-26T18:26:42.259Z,14.98
2022-09-26T18:29:13.584Z,16.23
2022-09-26T18:31:41.570Z,15.27
2022-09-26T18:34:18.765Z,15.45
2022-09-26T18:36:46.971Z,15.82
2022-09-26T18:39:13.754Z,16.42
2022-09-26T18:41:40.642Z,16.58
2022-09-26T18:44:16.594Z,16.50
2022-09-26T18:46:46.235Z,17.45
2022-09-26T18:49:14.380Z,16.83
2022-09-26T18:51:41.551Z,16.30
2022-09-26T18:54:16.544Z,18.08
2022-09-26T18:57:02.587Z,17.92
2022-09-26T18:59:32.253Z,18.90
2022-09-26T19:02:02.040Z,18.10
2022-09-26T19:04:30.723Z,18.48
2022-09-26T19:07:01.107Z,17.58
2022-09-26T19:09:32.847Z,17.62
2022-09-26T19:12:00.463Z,17.55
2022-09-26T19:14:29.115Z,19.30
2022-09-26T19:16:56.695Z,17.62
2022-09-26T19:19:24.451Z,18.37
2022-09-26T19:21:53.206Z,17.87
2022-09-26T19:24:37.968Z,16.30
2022-09-26T19:27:10.966Z,15.13
2022-09-26T19:29:43.636Z,14.18
2022-09-26T19:32:25.551Z,20.98
2022-09-26T19:34:56.938Z,14.10
2022-09-26T19:37:23.678Z,12.40
2022-09-26T19:39:50.653Z,12.80
2022-09-26T19:42:18.345Z,12.48
2022-09-26T19:44:45.399Z,13.38
2022-09-26T19:47:18.270Z,12.35
2022-09-26T19:49:48.566Z,11.50
2022-09-26T19:52:18.051Z,14.60
2022-09-26T19:54:45.453Z,13.90
2022-09-26T19:57:20.097Z,14.48
2022-09-26T19:59:48.514Z,15.15
2022-09-26T20:02:21.109Z,14.70
2022-09-26T20:04:48.690Z,16.58
2022-09-26T20:07:19.161Z,19.15
2022-09-26T20:09:46.402Z,17.95
2022-09-26T20:12:13.950Z,21.40
2022-09-26T20:14:40.928Z,17.98
2022-09-26T20:17:23.230Z,19.20
2022-09-26T20:19:54.007Z,19.15
2022-09-26T20:22:24.560Z,19.00
2022-09-26T20:24:55.403Z,17.73
2022-09-26T20:27:24.813Z,18.17
2022-09-26T20:30:11.322Z,15.70
2022-09-26T20:32:40.718Z,17.45
2022-09-26T20:35:13.347Z,16.65
2022-09-26T20:37:40.538Z,14.80
2022-09-26T20:40:18.082Z,17.23
2022-09-26T20:42:48.486Z,16.02
2022-09-26T20:45:18.054Z,17.23
2022-09-26T20:47:45.107Z,16.37
2022-09-26T20:50:17.991Z,17.50
2022-09-26T20:52:45.218Z,14.80
2022-09-26T20:55:18.016Z,14.43
2022-09-26T20:57:45.815Z,14.30
2022-09-26T21:00:20.669Z,14.43
2022-09-26T21:02:51.673Z,14.13
2022-09-26T21:05:22.996Z,15.68
2022-09-26T21:07:51.634Z,15.80
2022-09-26T21:10:33.002Z,15.98
2022-09-26T21:13:00.662Z,15.55
2022-09-26T21:15:30.937Z,13.90
2022-09-26T21:17:58.244Z,15.27
2022-09-26T21:20:33.889Z,15.65
2022-09-26T21:23:01.961Z,15.35
2022-09-26T21:25:31.297Z,14.30
2022-09-26T21:28:26.478Z,14.25
2022-09-26T21:31:00.405Z,14.00
2022-09-26T21:33:27.159Z,14.75
2022-09-26T21:35:54.726Z,14.27
2022-09-26T21:38:22.088Z,13.93
2022-09-26T21:40:55.420Z,13.85
2022-09-26T21:43:27.504Z,12.60
2022-09-26T21:45:54.307Z,13.52
2022-09-26T21:48:21.352Z,13.85
2022-09-26T21:50:57.663Z,13.70
2022-09-26T21:53:33.008Z,12.50
2022-09-26T21:56:07.393Z,13.68
2022-09-26T21:58:37.606Z,12.65
2022-09-26T22:01:04.987Z,13.02
2022-09-26T22:03:32.200Z,12.88
2022-09-26T22:06:01.371Z,12.68
2022-09-26T22:08:30.996Z,12.32
2022-09-26T22:10:57.971Z,14.50
2022-09-26T22:13:24.916Z,14.30
2022-09-26T22:15:51.649Z,13.55
2022-09-26T22:18:18.662Z,14.18
2022-09-26T22:20:45.324Z,14.32
2022-09-26T22:23:12.036Z,14.75
2022-09-26T22:25:42.800Z,14.38
2022-09-26T22:28:09.659Z,13.18
2022-09-26T22:30:39.408Z,14.85
2022-09-26T22:33:06.468Z,12.85
2022-09-26T22:35:33.081Z,13.43
2022-09-26T22:37:59.711Z,15.75
2022-09-26T22:40:26.785Z,13.05
2022-09-26T22:42:53.408Z,13.25
2022-09-26T22:45:20.527Z,14.55
2022-09-26T22:47:47.467Z,13.35
2022-09-26T22:50:14.889Z,14.10
2022-09-26T22:52:41.604Z,13.15
2022-09-26T22:55:08.806Z,13.45
2022-09-26T22:57:35.791Z,13.85
2022-09-26T23:00:03.771Z,14.52
2022-09-26T23:02:30.954Z,13.62
2022-09-26T23:04:57.896Z,12.88
2022-09-26T23:07:24.616Z,13.07
2022-09-26T23:09:51.817Z,12.85
2022-09-26T23:12:19.115Z,12.95
2022-09-26T23:14:45.896Z,13.75
2022-09-26T23:17:13.197Z,12.37
2022-09-26T23:19:40.250Z,12.43
2022-09-26T23:22:06.872Z,13.10
2022-09-26T23:24:33.763Z,13.82
2022-09-26T23:27:00.362Z,13.88
2022-09-26T23:29:26.984Z,12.20
2022-09-26T23:31:54.002Z,13.65
2022-09-26T23:34:20.960Z,13.27
2022-09-26T23:36:47.762Z,13.30
2022-09-26T23:39:14.820Z,14.15
2022-09-26T23:41:41.687Z,13.07
2022-09-26T23:44:08.468Z,13.80
2022-09-26T23:46:35.546Z,13.65
2022-09-26T23:49:02.247Z,13.18
2022-09-26T23:51:28.961Z,13.43
2022-09-26T23:53:55.868Z,14.13
2022-09-26T23:56:22.511Z,14.43
2022-09-26T23:58:49.310Z,14.25
